createdAt,value
2023-05-05T00:00:40.893Z,100569.91
2023-05-05T00:02:43.979Z,100564.66
2023-05-05T00:04:47.283Z,100568.19
2023-05-05T00:06:50.029Z,100566.47
2023-05-05T00:08:54.150Z,100566.50
2023-05-05T00:10:57.527Z,100563.88
2023-05-05T00:13:00.625Z,100563.00
2023-05-05T00:15:03.511Z,100570.84
2023-05-05T00:17:06.341Z,100567.38
2023-05-05T00:19:09.287Z,100563.88
2023-05-05T00:21:12.077Z,100566.50
2023-05-05T00:23:15.244Z,100561.22
2023-05-05T00:25:19.386Z,100564.66
2023-05-05T00:27:22.402Z,100564.66
2023-05-05T00:29:25.248Z,100561.19
2023-05-05T00:31:28.156Z,100569.06
2023-05-05T00:33:31.203Z,100562.09
2023-05-05T00:35:34.079Z,100562.09
2023-05-05T00:37:37.447Z,100562.94
2023-05-05T00:39:40.202Z,100558.59
2023-05-05T00:41:44.366Z,100553.34
2023-05-05T00:43:47.201Z,100553.34
2023-05-05T00:45:58.146Z,100555.97
2023-05-05T00:48:02.125Z,100560.34
2023-05-05T00:50:05.351Z,100553.38
2023-05-05T00:52:09.396Z,100534.13
2023-05-05T00:54:12.232Z,100540.25
2023-05-05T00:56:16.556Z,100535.03
2023-05-05T00:58:21.855Z,100544.72
2023-05-05T01:00:25.049Z,100543.84
2023-05-05T01:02:27.997Z,100532.41
2023-05-05T01:04:30.880Z,100531.63
2023-05-05T01:06:47.764Z,100536.88
2023-05-05T01:09:04.207Z,100535.16
2023-05-05T01:11:15.313Z,100535.19
2023-05-05T01:13:31.372Z,100542.16
2023-05-05T01:15:37.417Z,100536.91
2023-05-05T01:17:44.966Z,100533.41
2023-05-05T01:20:10.438Z,100541.28
2023-05-05T01:22:16.168Z,100533.56
2023-05-05T01:24:39.945Z,100537.97
2023-05-05T01:26:56.228Z,100538.78
2023-05-05T01:29:28.356Z,100535.22
2023-05-05T01:31:53.274Z,100537.88
2023-05-05T01:34:01.625Z,100532.59
2023-05-05T01:36:08.750Z,100545.75
2023-05-05T01:38:16.149Z,100545.72
2023-05-05T01:40:23.701Z,100553.59
2023-05-05T01:42:28.068Z,100551.88
2023-05-05T01:44:33.787Z,100558.00
2023-05-05T01:46:37.369Z,100557.13
2023-05-05T01:48:43.597Z,100550.13
2023-05-05T01:50:48.687Z,100551.91
2023-05-05T01:52:52.648Z,100544.03
2023-05-05T01:54:58.784Z,100550.22
2023-05-05T01:57:05.075Z,100558.94
2023-05-05T01:59:08.173Z,100561.56
2023-05-05T02:01:13.327Z,100565.06
2023-05-05T02:03:18.189Z,100563.31
2023-05-05T02:05:24.730Z,100578.22
2023-05-05T02:07:29.006Z,100579.09
2023-05-05T02:09:33.439Z,100576.50
2023-05-05T02:11:36.505Z,100567.81
2023-05-05T02:13:43.049Z,100575.69
2023-05-05T02:15:52.279Z,100568.69
2023-05-05T02:17:56.355Z,100577.44
2023-05-05T02:20:00.991Z,100577.44
2023-05-05T02:22:05.095Z,100583.59
2023-05-05T02:24:09.004Z,100580.09
2023-05-05T02:26:15.189Z,100578.34
2023-05-05T02:28:23.476Z,100573.97
2023-05-05T02:30:33.174Z,100568.75
2023-05-05T02:32:40.511Z,100571.38
2023-05-05T02:34:48.255Z,100581.88
2023-05-05T02:36:54.576Z,100578.38
2023-05-05T02:39:06.390Z,100578.38
2023-05-05T02:41:17.661Z,100587.16
2023-05-05T02:43:24.096Z,100588.03
2023-05-05T02:45:29.432Z,100586.28
2023-05-05T02:47:36.447Z,100588.06
2023-05-05T02:49:39.494Z,100590.69
2023-05-05T02:51:42.308Z,100587.16
2023-05-05T02:53:54.166Z,100593.31
2023-05-05T02:56:07.127Z,100588.06
2023-05-05T02:58:22.854Z,100603.78
2023-05-05T03:00:35.300Z,100601.19
2023-05-05T03:02:45.926Z,100591.59
2023-05-05T03:04:56.390Z,100598.59
2023-05-05T03:07:08.164Z,100585.50
2023-05-05T03:09:15.188Z,100588.97
2023-05-05T03:11:28.481Z,100588.97
2023-05-05T03:13:35.771Z,100589.88
2023-05-05T03:15:50.716Z,100582.88
2023-05-05T03:17:57.607Z,100591.66
2023-05-05T03:20:05.388Z,100589.91
2023-05-05T03:22:10.897Z,100591.66
2023-05-05T03:24:19.202Z,100591.66
2023-05-05T03:26:39.456Z,100589.06
2023-05-05T03:28:42.313Z,100588.16
2023-05-05T03:30:52.850Z,100582.94
2023-05-05T03:32:55.953Z,100594.28
2023-05-05T03:34:58.861Z,100589.03
2023-05-05T03:37:06.964Z,100595.16
2023-05-05T03:39:10.700Z,100600.38
2023-05-05T03:41:13.890Z,100605.63
2023-05-05T03:43:19.483Z,100609.13
2023-05-05T03:45:22.623Z,100615.19
2023-05-05T03:47:25.706Z,100615.22
2023-05-05T03:49:29.943Z,100618.72
2023-05-05T03:51:33.537Z,100617.84
2023-05-05T03:53:36.683Z,100619.56
2023-05-05T03:55:42.326Z,100617.84
2023-05-05T03:57:45.892Z,100614.34
2023-05-05T03:59:50.009Z,100603.88
2023-05-05T04:01:52.833Z,100603.88
2023-05-05T04:03:56.256Z,100604.75
2023-05-05T04:05:59.274Z,100606.50
2023-05-05T04:08:03.232Z,100607.38
2023-05-05T04:10:07.436Z,100611.75
2023-05-05T04:12:10.664Z,100604.75
2023-05-05T04:14:13.928Z,100610.88
2023-05-05T04:16:18.424Z,100610.00
2023-05-05T04:18:21.351Z,100610.88
2023-05-05T04:20:24.183Z,100615.25
2023-05-05T04:22:27.034Z,100630.97
2023-05-05T04:24:30.112Z,100630.06
2023-05-05T04:26:32.946Z,100633.56
2023-05-05T04:28:35.833Z,100640.53
2023-05-05T04:30:38.839Z,100634.41
2023-05-05T04:32:43.083Z,100635.31
2023-05-05T04:34:46.816Z,100633.56
2023-05-05T04:36:49.618Z,100634.44
2023-05-05T04:38:53.051Z,100634.41
2023-05-05T04:40:55.930Z,100631.81
2023-05-05T04:42:58.765Z,100641.41
2023-05-05T04:45:01.821Z,100641.41
2023-05-05T04:47:05.850Z,100635.31
2023-05-05T04:49:10.052Z,100637.03
2023-05-05T04:51:13.207Z,100644.03
2023-05-05T04:53:16.792Z,100640.53
2023-05-05T04:55:20.117Z,100648.38
2023-05-05T04:57:22.988Z,100645.75
2023-05-05T04:59:25.914Z,100657.09
2023-05-05T05:01:28.734Z,100650.97
2023-05-05T05:03:32.118Z,100647.47
2023-05-05T05:05:36.495Z,100666.66
2023-05-05T05:07:39.341Z,100664.03
2023-05-05T05:09:42.260Z,100659.66
2023-05-05T05:11:45.091Z,100658.78
2023-05-05T05:13:47.895Z,100662.25
2023-05-05T05:15:50.803Z,100651.75
2023-05-05T05:17:54.494Z,100661.38
2023-05-05T05:19:59.201Z,100653.53
2023-05-05T05:22:03.363Z,100660.53
2023-05-05T05:24:08.450Z,100654.41
2023-05-05T05:26:11.309Z,100661.38
2023-05-05T05:28:14.301Z,100659.63
2023-05-05T05:30:25.060Z,100659.59
2023-05-05T05:32:28.217Z,100663.97
2023-05-05T05:34:31.401Z,100663.06
2023-05-05T05:36:34.699Z,100663.06
2023-05-05T05:38:38.866Z,100670.91
2023-05-05T05:40:42.005Z,100670.03
2023-05-05T05:42:45.229Z,100666.56
2023-05-05T05:44:47.971Z,100669.16
2023-05-05T05:46:50.914Z,100677.00
2023-05-05T05:48:53.804Z,100673.50
2023-05-05T05:50:57.099Z,100677.00
2023-05-05T05:53:00.697Z,100669.06
2023-05-05T05:55:06.747Z,100677.78
2023-05-05T05:57:10.345Z,100680.41
2023-05-05T05:59:13.174Z,100684.75
2023-05-05T06:01:17.152Z,100688.25
2023-05-05T06:03:20.970Z,100692.63
2023-05-05T06:05:23.915Z,100701.28
2023-05-05T06:07:27.771Z,100701.28
2023-05-05T06:09:30.621Z,100698.66
2023-05-05T06:11:35.050Z,100696.91
2023-05-05T06:13:37.803Z,100697.78
2023-05-05T06:15:42.202Z,100695.97
2023-05-05T06:17:45.744Z,100691.56
2023-05-05T06:19:48.599Z,100690.59
2023-05-05T06:21:51.770Z,100698.44
2023-05-05T06:23:55.047Z,100706.31
2023-05-05T06:25:57.931Z,100704.50
2023-05-05T06:28:02.107Z,100700.13
2023-05-05T06:30:06.750Z,100703.53
2023-05-05T06:32:09.787Z,100701.81
2023-05-05T06:34:12.530Z,100704.38
2023-05-05T06:36:15.347Z,100705.22
2023-05-05T06:38:18.151Z,100702.63
2023-05-05T06:40:21.013Z,100707.00
2023-05-05T06:42:23.948Z,100703.50
2023-05-05T06:44:31.001Z,100705.25
2023-05-05T06:46:34.154Z,100704.31
2023-05-05T06:48:36.995Z,100713.00
2023-05-05T06:50:39.876Z,100706.09
2023-05-05T06:52:42.684Z,100707.81
2023-05-05T06:54:45.482Z,100706.84
2023-05-05T06:56:48.280Z,100713.84
2023-05-05T06:58:51.512Z,100713.78
2023-05-05T07:00:55.781Z,100710.13
2023-05-05T07:02:58.622Z,100708.28
2023-05-05T07:05:01.537Z,100706.44
2023-05-05T07:07:07.444Z,100702.94
2023-05-05T07:09:10.412Z,100702.00
2023-05-05T07:11:13.234Z,100708.97
2023-05-05T07:13:17.381Z,100710.63
2023-05-05T07:15:28.671Z,100700.91
2023-05-05T07:17:33.896Z,100708.69
2023-05-05T07:19:36.770Z,100711.31
2023-05-05T07:21:39.700Z,100711.22
2023-05-05T07:23:42.561Z,100717.28
2023-05-05T07:25:45.438Z,100721.50
2023-05-05T07:27:48.203Z,100719.63
2023-05-05T07:29:51.222Z,100721.31
2023-05-05T07:31:54.082Z,100716.75
2023-05-05T07:33:58.288Z,100720.09
2023-05-05T07:36:01.110Z,100716.38
2023-05-05T07:38:03.896Z,100709.25
2023-05-05T07:40:08.394Z,100710.84
2023-05-05T07:42:11.225Z,100708.19
2023-05-05T07:44:14.033Z,100719.66
2023-05-05T07:46:16.884Z,100718.75
2023-05-05T07:48:20.010Z,100723.13
2023-05-05T07:50:24.893Z,100709.97
2023-05-05T07:52:44.176Z,100713.53
2023-05-05T07:54:50.850Z,100713.47
2023-05-05T07:56:54.021Z,100724.13
2023-05-05T07:58:56.822Z,100711.03
2023-05-05T08:01:00.795Z,100712.72
2023-05-05T08:03:03.956Z,100720.59
2023-05-05T08:05:08.098Z,100710.94
2023-05-05T08:07:12.536Z,100710.03
2023-05-05T08:09:15.434Z,100709.13
2023-05-05T08:11:18.377Z,100701.22
2023-05-05T08:13:21.354Z,100704.75
2023-05-05T08:15:24.160Z,100706.41
2023-05-05T08:17:27.141Z,100704.47
2023-05-05T08:19:29.966Z,100705.44
2023-05-05T08:21:33.922Z,100697.34
2023-05-05T08:23:39.062Z,100697.19
2023-05-05T08:25:41.873Z,100695.22
2023-05-05T08:27:45.952Z,100693.22
2023-05-05T08:29:48.955Z,100696.25
2023-05-05T08:31:51.942Z,100687.84
2023-05-05T08:33:55.166Z,100696.13
2023-05-05T08:35:59.936Z,100692.13
2023-05-05T08:38:02.859Z,100690.09
2023-05-05T08:40:08.521Z,100688.16
2023-05-05T08:42:11.792Z,100686.22
2023-05-05T08:44:16.106Z,100685.78
2023-05-05T08:46:19.162Z,100678.50
2023-05-05T08:48:24.925Z,100683.66
2023-05-05T08:50:29.916Z,100679.78
2023-05-05T08:52:39.562Z,100681.19
2023-05-05T08:54:51.323Z,100684.31
2023-05-05T08:56:59.645Z,100683.88
2023-05-05T08:59:03.711Z,100685.06
2023-05-05T09:01:08.207Z,100685.75
2023-05-05T09:03:12.199Z,100681.03
2023-05-05T09:05:15.327Z,100680.69
2023-05-05T09:07:18.360Z,100676.84
2023-05-05T09:09:21.406Z,100674.88
2023-05-05T09:11:24.321Z,100680.63
2023-05-05T09:13:28.684Z,100672.31
2023-05-05T09:15:32.905Z,100668.06
2023-05-05T09:17:35.810Z,100671.31
2023-05-05T09:19:57.313Z,100665.75
2023-05-05T09:22:00.370Z,100660.03
2023-05-05T09:24:11.258Z,100661.66
2023-05-05T09:26:14.445Z,100662.78
2023-05-05T09:28:18.977Z,100659.44
2023-05-05T09:30:26.914Z,100660.53
2023-05-05T09:32:30.653Z,100660.53
2023-05-05T09:34:35.350Z,100653.31
2023-05-05T09:36:48.832Z,100652.06
2023-05-05T09:39:06.225Z,100643.50
2023-05-05T09:41:09.289Z,100642.19
2023-05-05T09:43:12.338Z,100643.66
2023-05-05T09:45:28.741Z,100634.91
2023-05-05T09:47:35.593Z,100634.91
2023-05-05T09:49:39.070Z,100641.78
2023-05-05T09:51:41.998Z,100643.97
2023-05-05T09:53:44.999Z,100643.59
2023-05-05T09:55:55.596Z,100638.75
2023-05-05T09:57:58.539Z,100638.38
2023-05-05T10:00:04.126Z,100641.47
2023-05-05T10:02:14.357Z,100639.44
2023-05-05T10:04:25.537Z,100641.28
2023-05-05T10:06:41.532Z,100638.03
2023-05-05T10:08:44.296Z,100631.28
2023-05-05T10:10:55.433Z,100633.59
2023-05-05T10:12:58.548Z,100636.84
2023-05-05T10:15:03.565Z,100636.50
2023-05-05T10:17:08.033Z,100635.59
2023-05-05T10:19:14.236Z,100635.22
2023-05-05T10:21:21.011Z,100634.97
2023-05-05T10:23:25.241Z,100641.53
2023-05-05T10:25:31.478Z,100644.31
2023-05-05T10:27:43.190Z,100638.34
2023-05-05T10:29:53.190Z,100631.19
2023-05-05T10:32:21.501Z,100628.25
2023-05-05T10:34:36.256Z,100623.63
2023-05-05T10:37:00.181Z,100622.13
2023-05-05T10:39:06.689Z,100625.69
2023-05-05T10:41:12.093Z,100625.69
2023-05-05T10:43:15.281Z,100622.38
2023-05-05T10:45:18.136Z,100627.63
2023-05-05T10:47:23.167Z,100616.94
2023-05-05T10:49:41.868Z,100617.06
2023-05-05T10:51:54.533Z,100614.09
2023-05-05T10:54:01.381Z,100615.00
2023-05-05T10:56:11.599Z,100612.34
2023-05-05T10:58:35.040Z,100610.13
2023-05-05T11:00:50.783Z,100611.94
2023-05-05T11:03:23.532Z,100610.78
2023-05-05T11:05:27.762Z,100607.88
2023-05-05T11:07:30.624Z,100601.38
2023-05-05T11:09:37.045Z,100602.03
2023-05-05T11:12:05.355Z,100595.94
2023-05-05T11:14:22.273Z,100592.38
2023-05-05T11:16:45.455Z,100597.38
2023-05-05T11:18:48.349Z,100591.94
2023-05-05T11:21:18.207Z,100595.75
2023-05-05T11:23:24.305Z,100588.16
2023-05-05T11:25:51.246Z,100586.19
2023-05-05T11:28:07.001Z,100583.06
2023-05-05T11:30:11.505Z,100583.19
2023-05-05T11:32:15.638Z,100565.53
2023-05-05T11:34:28.782Z,100567.09
2023-05-05T11:36:41.999Z,100570.81
2023-05-05T11:39:02.578Z,100558.63
2023-05-05T11:41:13.336Z,100562.91
2023-05-05T11:43:19.656Z,100559.63
2023-05-05T11:45:23.934Z,100559.94
2023-05-05T11:47:30.835Z,100564.84
2023-05-05T11:49:35.398Z,100557.81
2023-05-05T11:51:38.800Z,100556.53
2023-05-05T11:53:45.035Z,100553.16
2023-05-05T11:55:47.863Z,100545.06
2023-05-05T11:57:50.825Z,100551.38
2023-05-05T11:59:56.169Z,100544.34
2023-05-05T12:01:59.407Z,100540.84
2023-05-05T12:04:02.527Z,100542.38
2023-05-05T12:06:06.934Z,100543.91
2023-05-05T12:08:10.260Z,100540.81
2023-05-05T12:10:14.520Z,100536.03
2023-05-05T12:12:18.467Z,100542.28
2023-05-05T12:14:22.055Z,100540.53
2023-05-05T12:16:24.927Z,100532.69
2023-05-05T12:18:28.213Z,100538.25
2023-05-05T12:20:32.540Z,100538.50
2023-05-05T12:22:35.343Z,100531.31
2023-05-05T12:24:38.185Z,100537.66
2023-05-05T12:26:42.741Z,100529.72
2023-05-05T12:28:47.137Z,100533.59
2023-05-05T12:30:56.841Z,100531.25
2023-05-05T12:33:03.797Z,100528.38
2023-05-05T12:35:08.052Z,100523.66
2023-05-05T12:37:12.411Z,100527.97
2023-05-05T12:39:15.285Z,100524.81
2023-05-05T12:41:21.231Z,100524.28
2023-05-05T12:43:28.487Z,100523.38
2023-05-05T12:45:31.352Z,100520.06
2023-05-05T12:47:35.539Z,100517.34
2023-05-05T12:49:51.559Z,100525.50
2023-05-05T12:51:55.637Z,100513.66
2023-05-05T12:54:07.191Z,100518.81
2023-05-05T12:56:35.025Z,100509.91
2023-05-05T12:58:52.061Z,100508.34
2023-05-05T13:01:08.990Z,100503.44
2023-05-05T13:03:20.276Z,100500.28
2023-05-05T13:05:32.820Z,100491.78
2023-05-05T13:07:35.701Z,100493.88
2023-05-05T13:09:38.677Z,100479.47
2023-05-05T13:11:41.563Z,100489.22
2023-05-05T13:13:44.326Z,100481.47
2023-05-05T13:15:48.472Z,100485.59
2023-05-05T13:17:51.338Z,100480.09
2023-05-05T13:19:54.170Z,100483.75
2023-05-05T13:21:58.071Z,100472.31
2023-05-05T13:24:12.494Z,100473.19
2023-05-05T13:26:24.783Z,100472.06
2023-05-05T13:28:27.572Z,100475.19
2023-05-05T13:30:30.360Z,100462.41
2023-05-05T13:32:34.575Z,100468.03
2023-05-05T13:34:38.907Z,100468.72
2023-05-05T13:36:41.528Z,100467.41
2023-05-05T13:38:44.273Z,100469.72
2023-05-05T13:40:47.007Z,100463.66
2023-05-05T13:42:49.847Z,100468.13
2023-05-05T13:44:52.740Z,100461.53
2023-05-05T13:46:55.521Z,100464.34
2023-05-05T13:48:59.626Z,100466.16
2023-05-05T13:51:02.474Z,100468.75
2023-05-05T13:53:05.283Z,100454.91
2023-05-05T13:55:09.130Z,100455.31
2023-05-05T13:57:12.357Z,100456.06
2023-05-05T13:59:15.178Z,100453.25
2023-05-05T14:01:17.998Z,100454.63
2023-05-05T14:03:20.848Z,100459.28
2023-05-05T14:05:25.048Z,100453.19
2023-05-05T14:07:28.003Z,100448.53
2023-05-05T14:09:30.791Z,100448.31
2023-05-05T14:11:33.651Z,100440.69
2023-05-05T14:13:36.610Z,100439.13
2023-05-05T14:15:39.407Z,100437.09
2023-05-05T14:17:42.234Z,100430.28
2023-05-05T14:19:45.436Z,100435.59
2023-05-05T14:21:49.519Z,100431.22
2023-05-05T14:23:52.428Z,100424.19
2023-05-05T14:25:55.224Z,100419.97
2023-05-05T14:27:58.006Z,100417.97
2023-05-05T14:30:00.850Z,100419.44
2023-05-05T14:32:03.751Z,100429.78
2023-05-05T14:34:06.663Z,100420.56
2023-05-05T14:36:09.951Z,100425.69
2023-05-05T14:38:14.137Z,100433.00
2023-05-05T14:40:16.837Z,100438.09
2023-05-05T14:42:19.596Z,100426.78
2023-05-05T14:44:22.411Z,100429.44
2023-05-05T14:46:26.100Z,100431.63
2023-05-05T14:48:28.940Z,100435.00
2023-05-05T14:50:31.758Z,100434.50
2023-05-05T14:52:34.602Z,100432.06
2023-05-05T14:54:38.777Z,100428.34
2023-05-05T14:56:41.728Z,100426.25
2023-05-05T14:58:44.623Z,100425.13
2023-05-05T15:00:47.455Z,100434.50
2023-05-05T15:02:50.348Z,100428.34
2023-05-05T15:04:53.543Z,100432.03
2023-05-05T15:06:56.537Z,100441.69
2023-05-05T15:08:59.335Z,100439.94
2023-05-05T15:11:04.181Z,100442.91
2023-05-05T15:13:06.995Z,100448.56
2023-05-05T15:15:10.746Z,100457.38
2023-05-05T15:17:13.812Z,100466.38
2023-05-05T15:19:16.569Z,100461.38
2023-05-05T15:21:19.317Z,100458.63
2023-05-05T15:23:22.061Z,100469.56
2023-05-05T15:25:25.111Z,100465.44
2023-05-05T15:27:30.074Z,100471.25
2023-05-05T15:29:33.026Z,100481.78
2023-05-05T15:31:35.901Z,100480.44
2023-05-05T15:33:39.269Z,100479.91
2023-05-05T15:35:42.020Z,100483.53
2023-05-05T15:37:44.932Z,100482.81
2023-05-05T15:39:47.788Z,100480.41
2023-05-05T15:41:50.592Z,100492.91
2023-05-05T15:43:54.726Z,100483.28
2023-05-05T15:45:57.494Z,100482.22
2023-05-05T15:48:00.329Z,100496.44
2023-05-05T15:50:03.299Z,100499.31
2023-05-05T15:52:06.381Z,100508.94
2023-05-05T15:54:09.160Z,100509.59
2023-05-05T15:56:11.958Z,100523.88
2023-05-05T15:58:14.702Z,100523.38
2023-05-05T16:00:19.058Z,100539.84
2023-05-05T16:02:23.847Z,100543.91
2023-05-05T16:04:26.814Z,100549.66
2023-05-05T16:06:29.918Z,100563.91
2023-05-05T16:08:32.682Z,100569.31
2023-05-05T16:10:36.195Z,100572.41
2023-05-05T16:12:38.958Z,100575.47
2023-05-05T16:14:41.848Z,100575.66
2023-05-05T16:16:46.011Z,100581.59
2023-05-05T16:18:50.113Z,100582.56
2023-05-05T16:20:52.892Z,100576.75
2023-05-05T16:22:55.899Z,100582.09
2023-05-05T16:24:58.699Z,100569.84
2023-05-05T16:27:01.474Z,100561.00
2023-05-05T16:29:04.317Z,100557.47
2023-05-05T16:31:09.462Z,100552.94
2023-05-05T16:33:13.720Z,100551.06
2023-05-05T16:35:16.547Z,100549.19
2023-05-05T16:37:19.348Z,100553.47
2023-05-05T16:39:22.100Z,100562.19
2023-05-05T16:41:25.957Z,100558.75
2023-05-05T16:43:28.829Z,100558.81
2023-05-05T16:45:31.592Z,100562.34
2023-05-05T16:47:34.421Z,100557.03
2023-05-05T16:49:38.595Z,100562.28
2023-05-05T16:51:41.352Z,100563.25
2023-05-05T16:53:44.147Z,100566.66
2023-05-05T16:55:50.905Z,100557.72
2023-05-05T16:57:53.786Z,100561.31
2023-05-05T16:59:56.931Z,100555.16
2023-05-05T17:01:59.813Z,100557.88
2023-05-05T17:04:02.679Z,100560.56
2023-05-05T17:06:07.339Z,100560.56
2023-05-05T17:08:11.185Z,100564.09
2023-05-05T17:10:13.946Z,100564.16
2023-05-05T17:12:16.799Z,100557.03
2023-05-05T17:14:19.603Z,100558.81
2023-05-05T17:16:22.598Z,100555.34
2023-05-05T17:18:25.898Z,100556.25
2023-05-05T17:20:28.820Z,100555.44
2023-05-05T17:22:32.981Z,100558.88
2023-05-05T17:24:35.780Z,100570.31
2023-05-05T17:26:39.695Z,100573.91
2023-05-05T17:28:42.555Z,100571.34
2023-05-05T17:30:45.494Z,100566.13
2023-05-05T17:32:48.661Z,100567.09
2023-05-05T17:34:51.513Z,100568.84
2023-05-05T17:36:54.265Z,100558.31
2023-05-05T17:38:58.431Z,100554.91
2023-05-05T17:41:01.613Z,100561.16
2023-05-05T17:43:04.474Z,100559.38
2023-05-05T17:45:08.722Z,100552.38
2023-05-05T17:47:11.591Z,100548.22
2023-05-05T17:49:14.455Z,100557.88
2023-05-05T17:51:17.261Z,100551.72
2023-05-05T17:53:20.023Z,100556.94
2023-05-05T17:55:24.171Z,100567.41
2023-05-05T17:57:27.004Z,100560.44
2023-05-05T17:59:29.834Z,100562.19
2023-05-05T18:01:32.705Z,100569.28
2023-05-05T18:03:36.805Z,100572.91
2023-05-05T18:05:40.808Z,100579.16
2023-05-05T18:07:43.621Z,100577.41
2023-05-05T18:09:46.427Z,100579.25
2023-05-05T18:11:52.552Z,100581.84
2023-05-05T18:13:55.799Z,100585.47
2023-05-05T18:15:58.658Z,100589.84
2023-05-05T18:18:01.597Z,100588.13
2023-05-05T18:20:06.834Z,100594.28
2023-05-05T18:22:09.610Z,100593.44
2023-05-05T18:26:21.215Z,100591.78
2023-05-05T18:28:25.394Z,100591.78
2023-05-05T18:30:28.133Z,100590.06
2023-05-05T18:32:31.259Z,100590.94
2023-05-05T18:34:34.135Z,100598.81
2023-05-05T18:36:36.941Z,100598.09
2023-05-05T18:38:39.670Z,100600.75
2023-05-05T18:40:42.556Z,100595.50
2023-05-05T18:42:45.330Z,100602.50
2023-05-05T18:44:49.452Z,100609.63
2023-05-05T18:46:52.379Z,100608.78
2023-05-05T18:48:55.205Z,100613.19
2023-05-05T18:51:02.168Z,100611.50
2023-05-05T18:53:04.968Z,100621.19
2023-05-05T18:55:08.352Z,100620.28
2023-05-05T18:57:11.327Z,100618.56
2023-05-05T18:59:14.074Z,100625.53
2023-05-05T19:01:18.359Z,100623.81
2023-05-05T19:03:22.049Z,100630.84
2023-05-05T19:05:24.949Z,100634.38
2023-05-05T19:07:35.062Z,100639.69
2023-05-05T19:09:38.614Z,100643.25
2023-05-05T19:11:42.836Z,100639.75
2023-05-05T19:13:45.786Z,100643.38
2023-05-05T19:15:49.205Z,100646.97
2023-05-05T19:17:53.617Z,100650.50
2023-05-05T19:19:56.325Z,100651.56
2023-05-05T19:21:59.947Z,100648.09
2023-05-05T19:24:03.466Z,100653.34
2023-05-05T19:26:06.785Z,100641.91
2023-05-05T19:28:10.660Z,100641.00
2023-05-05T19:30:13.788Z,100638.38
2023-05-05T19:32:16.838Z,100647.13
2023-05-05T19:34:21.389Z,100648.03
2023-05-05T19:36:24.137Z,100654.28
2023-05-05T19:38:27.626Z,100649.81
2023-05-05T19:40:30.605Z,100650.66
2023-05-05T19:43:23.608Z,100648.78
2023-05-05T19:45:26.461Z,100662.03
2023-05-05T19:47:29.280Z,100659.41
2023-05-05T19:49:33.436Z,100658.59
2023-05-05T19:51:36.276Z,100657.78
2023-05-05T19:53:40.025Z,100651.66
2023-05-05T19:55:42.811Z,100663.97
2023-05-05T19:57:45.604Z,100662.22
2023-05-05T19:59:49.531Z,100663.97
2023-05-05T20:01:52.400Z,100655.22
2023-05-05T20:03:57.002Z,100658.81
2023-05-05T20:06:01.396Z,100669.31
2023-05-05T20:08:04.228Z,100666.66
2023-05-05T20:10:08.302Z,100655.34
2023-05-05T20:12:12.143Z,100650.97
2023-05-05T20:14:15.061Z,100651.81
2023-05-05T20:16:18.159Z,100650.94
2023-05-05T20:18:21.066Z,100657.94
2023-05-05T20:20:23.935Z,100651.78
2023-05-05T20:22:28.057Z,100661.38
2023-05-05T20:24:31.355Z,100661.41
2023-05-05T20:26:34.349Z,100655.34
2023-05-05T20:28:38.999Z,100657.09
2023-05-05T20:30:41.796Z,100654.50
2023-05-05T20:32:44.594Z,100670.25
2023-05-05T20:34:47.515Z,100661.53
2023-05-05T20:36:50.666Z,100668.59
2023-05-05T20:38:55.007Z,100664.22
2023-05-05T20:40:57.790Z,100671.25
2023-05-05T20:43:00.532Z,100673.97
2023-05-05T20:45:03.480Z,100674.84
2023-05-05T20:47:06.761Z,100676.63
2023-05-05T20:49:09.739Z,100673.16
2023-05-05T20:51:12.544Z,100669.66
2023-05-05T20:53:15.512Z,100673.19
2023-05-05T20:55:19.789Z,100674.94
2023-05-05T20:57:22.608Z,100677.63
2023-05-05T20:59:27.939Z,100675.03
2023-05-05T21:01:30.959Z,100684.66
2023-05-05T21:03:33.845Z,100685.56
2023-05-05T21:05:37.151Z,100688.25
2023-05-05T21:07:39.880Z,100679.53
2023-05-05T21:09:42.856Z,100677.78
2023-05-05T21:11:47.152Z,100683.03
2023-05-05T21:13:49.927Z,100688.34
2023-05-05T21:15:52.706Z,100686.59
2023-05-05T21:17:56.144Z,100683.16
2023-05-05T21:19:58.960Z,100690.16
2023-05-05T21:22:02.171Z,100683.16
2023-05-05T21:24:07.671Z,100675.31
2023-05-05T21:26:10.793Z,100679.69
2023-05-05T21:28:14.959Z,100675.34
2023-05-05T21:30:18.273Z,100682.38
2023-05-05T21:32:21.332Z,100688.50
2023-05-05T21:34:24.150Z,100680.66
2023-05-05T21:36:27.260Z,100679.78
2023-05-05T21:38:30.061Z,100683.28
2023-05-05T21:40:32.888Z,100673.72
2023-05-05T21:42:35.674Z,100673.72
2023-05-05T21:44:39.865Z,100678.13
2023-05-05T21:46:42.869Z,100676.38
2023-05-05T21:48:48.119Z,100672.91
2023-05-05T21:50:50.957Z,100672.06
2023-05-05T21:52:53.730Z,100676.47
2023-05-05T21:54:56.565Z,100677.34
2023-05-05T21:57:00.142Z,100685.22
2023-05-05T21:59:03.773Z,100680.00
2023-05-05T22:01:08.100Z,100679.13
2023-05-05T22:03:11.012Z,100680.91
2023-05-05T22:05:13.885Z,100682.72
2023-05-05T22:07:16.690Z,100677.47
2023-05-05T22:09:19.448Z,100683.66
2023-05-05T22:11:22.269Z,100681.88
2023-05-05T22:13:25.081Z,100681.88
2023-05-05T22:15:32.824Z,100688.91
2023-05-05T22:17:43.265Z,100691.53
2023-05-05T22:19:46.076Z,100690.66
2023-05-05T22:21:48.909Z,100688.03
2023-05-05T22:23:51.693Z,100691.53
2023-05-05T22:25:54.657Z,100697.69
2023-05-05T22:27:57.394Z,100694.19
2023-05-05T22:30:00.302Z,100695.09
2023-05-05T22:32:03.066Z,100699.56
2023-05-05T22:34:07.155Z,100696.94
2023-05-05T22:36:11.484Z,100690.81
2023-05-05T22:38:14.346Z,100689.06
2023-05-05T22:40:17.249Z,100682.94
2023-05-05T22:42:20.031Z,100685.53
2023-05-05T22:44:22.738Z,100683.81
2023-05-05T22:46:25.735Z,100690.78
2023-05-05T22:48:29.787Z,100695.16
2023-05-05T22:50:34.049Z,100696.94
2023-05-05T22:52:36.789Z,100695.19
2023-05-05T22:54:39.623Z,100697.81
2023-05-05T22:56:42.411Z,100701.31
2023-05-05T22:58:46.395Z,100694.34
2023-05-05T23:00:49.182Z,100691.72
2023-05-05T23:02:52.171Z,100689.13
2023-05-05T23:04:55.801Z,100697.84
2023-05-05T23:06:59.922Z,100692.63
2023-05-05T23:09:02.686Z,100697.03
2023-05-05T23:11:05.661Z,100697.94
2023-05-05T23:13:08.563Z,100697.94
2023-05-05T23:15:12.395Z,100697.97
2023-05-05T23:17:15.512Z,100697.09
2023-05-05T23:19:18.292Z,100694.50
2023-05-05T23:21:21.200Z,100688.41
2023-05-05T23:23:25.327Z,100690.13
2023-05-05T23:25:28.122Z,100685.78
2023-05-05T23:27:30.924Z,100689.28
2023-05-05T23:29:33.764Z,100687.50
2023-05-05T23:31:36.526Z,100691.88
2023-05-05T23:33:39.294Z,100687.50
2023-05-05T23:35:43.328Z,100680.50
2023-05-05T23:37:46.096Z,100687.50
2023-05-05T23:39:50.271Z,100689.28
2023-05-05T23:41:53.110Z,100691.91
2023-05-05T23:43:55.876Z,100691.91
2023-05-05T23:45:58.707Z,100688.41
2023-05-05T23:48:01.529Z,100692.78